sensor_id;sensor_type;location;lat;lon;timestamp;P1;durP1;ratioP1;P2;durP2;ratioP2
59649;SDS011;46162;57.568;25.814;2023-04-24T00:02:23;7.70;;;1.38;;
59649;SDS011;46162;57.568;25.814;2023-04-24T00:04:52;4.18;;;1.52;;
59649;SDS011;46162;57.568;25.814;2023-04-24T00:07:21;5.53;;;0.88;;
59649;SDS011;46162;57.568;25.814;2023-04-24T00:09:50;7.95;;;1.17;;
59649;SDS011;46162;57.568;25.814;2023-04-24T00:12:18;12.60;;;1.73;;
59649;SDS011;46162;57.568;25.814;2023-04-24T00:14:48;5.10;;;0.95;;
59649;SDS011;46162;57.568;25.814;2023-04-24T00:17:17;5.63;;;0.85;;
59649;SDS011;46162;57.568;25.814;2023-04-24T00:19:46;4.35;;;1.33;;
59649;SDS011;46162;57.568;25.814;2023-04-24T00:22:15;7.00;;;0.82;;
59649;SDS011;46162;57.568;25.814;2023-04-24T00:24:44;10.15;;;1.33;;
59649;SDS011;46162;57.568;25.814;2023-04-24T00:27:12;5.70;;;1.25;;
59649;SDS011;46162;57.568;25.814;2023-04-24T00:29:41;6.63;;;1.10;;
59649;SDS011;46162;57.568;25.814;2023-04-24T00:32:11;5.70;;;1.00;;
59649;SDS011;46162;57.568;25.814;2023-04-24T00:34:40;8.38;;;1.35;;
59649;SDS011;46162;57.568;25.814;2023-04-24T00:37:09;4.95;;;1.05;;
59649;SDS011;46162;57.568;25.814;2023-04-24T00:39:38;5.72;;;1.05;;
59649;SDS011;46162;57.568;25.814;2023-04-24T00:42:07;5.45;;;0.80;;
59649;SDS011;46162;57.568;25.814;2023-04-24T00:44:35;6.30;;;1.30;;
59649;SDS011;46162;57.568;25.814;2023-04-24T00:47:04;8.10;;;0.95;;
59649;SDS011;46162;57.568;25.814;2023-04-24T00:49:35;4.93;;;0.90;;
59649;SDS011;46162;57.568;25.814;2023-04-24T00:52:03;9.75;;;1.00;;
59649;SDS011;46162;57.568;25.814;2023-04-24T00:54:35;4.85;;;1.25;;
59649;SDS011;46162;57.568;25.814;2023-04-24T00:57:04;3.60;;;0.90;;
59649;SDS011;46162;57.568;25.814;2023-04-24T00:59:32;4.90;;;1.15;;
59649;SDS011;46162;57.568;25.814;2023-04-24T01:02:02;4.72;;;1.00;;
59649;SDS011;46162;57.568;25.814;2023-04-24T01:04:31;5.85;;;1.02;;
59649;SDS011;46162;57.568;25.814;2023-04-24T01:07:01;4.40;;;0.98;;
59649;SDS011;46162;57.568;25.814;2023-04-24T01:09:31;3.20;;;0.70;;
59649;SDS011;46162;57.568;25.814;2023-04-24T01:11:59;8.68;;;0.93;;
59649;SDS011;46162;57.568;25.814;2023-04-24T01:14:29;9.80;;;1.02;;
59649;SDS011;46162;57.568;25.814;2023-04-24T01:16:58;6.40;;;1.17;;
59649;SDS011;46162;57.568;25.814;2023-04-24T01:19:27;7.97;;;1.10;;
59649;SDS011;46162;57.568;25.814;2023-04-24T01:21:57;5.25;;;1.40;;
59649;SDS011;46162;57.568;25.814;2023-04-24T01:24:31;4.80;;;1.00;;
59649;SDS011;46162;57.568;25.814;2023-04-24T01:27:00;6.00;;;1.00;;
59649;SDS011;46162;57.568;25.814;2023-04-24T01:29:28;6.35;;;1.30;;
59649;SDS011;46162;57.568;25.814;2023-04-24T01:31:57;4.15;;;0.90;;
59649;SDS011;46162;57.568;25.814;2023-04-24T01:34:26;3.85;;;0.93;;
59649;SDS011;46162;57.568;25.814;2023-04-24T01:36:55;4.88;;;0.95;;
59649;SDS011;46162;57.568;25.814;2023-04-24T01:39:23;5.47;;;1.13;;
59649;SDS011;46162;57.568;25.814;2023-04-24T01:41:54;4.05;;;1.17;;
59649;SDS011;46162;57.568;25.814;2023-04-24T01:44:23;6.68;;;1.20;;
59649;SDS011;46162;57.568;25.814;2023-04-24T01:46:52;5.55;;;1.15;;
59649;SDS011;46162;57.568;25.814;2023-04-24T01:49:23;6.80;;;1.17;;
59649;SDS011;46162;57.568;25.814;2023-04-24T01:51:51;3.47;;;0.88;;
59649;SDS011;46162;57.568;25.814;2023-04-24T01:54:20;4.43;;;0.80;;
59649;SDS011;46162;57.568;25.814;2023-04-24T01:56:48;4.35;;;1.13;;
59649;SDS011;46162;57.568;25.814;2023-04-24T01:59:19;5.05;;;0.88;;
59649;SDS011;46162;57.568;25.814;2023-04-24T02:01:49;5.15;;;1.27;;
59649;SDS011;46162;57.568;25.814;2023-04-24T02:04:18;4.20;;;0.88;;
59649;SDS011;46162;57.568;25.814;2023-04-24T02:06:47;5.97;;;1.40;;
59649;SDS011;46162;57.568;25.814;2023-04-24T02:09:15;6.57;;;1.13;;
59649;SDS011;46162;57.568;25.814;2023-04-24T02:11:44;6.22;;;0.60;;
59649;SDS011;46162;57.568;25.814;2023-04-24T02:14:13;6.32;;;1.05;;
59649;SDS011;46162;57.568;25.814;2023-04-24T02:16:43;3.70;;;0.93;;
59649;SDS011;46162;57.568;25.814;2023-04-24T02:21:41;4.60;;;1.10;;
59649;SDS011;46162;57.568;25.814;2023-04-24T02:24:09;2.95;;;0.82;;
59649;SDS011;46162;57.568;25.814;2023-04-24T02:26:38;4.40;;;0.63;;
59649;SDS011;46162;57.568;25.814;2023-04-24T02:29:06;6.00;;;1.05;;
59649;SDS011;46162;57.568;25.814;2023-04-24T02:31:35;4.75;;;1.10;;
59649;SDS011;46162;57.568;25.814;2023-04-24T02:34:05;4.47;;;0.70;;
59649;SDS011;46162;57.568;25.814;2023-04-24T02:36:33;5.07;;;0.90;;
59649;SDS011;46162;57.568;25.814;2023-04-24T02:39:02;3.90;;;1.10;;
59649;SDS011;46162;57.568;25.814;2023-04-24T02:41:31;5.32;;;0.90;;
59649;SDS011;46162;57.568;25.814;2023-04-24T02:44:00;2.90;;;0.98;;
59649;SDS011;46162;57.568;25.814;2023-04-24T02:46:28;5.90;;;1.00;;
59649;SDS011;46162;57.568;25.814;2023-04-24T02:48:57;5.55;;;1.20;;
59649;SDS011;46162;57.568;25.814;2023-04-24T02:51:27;7.25;;;1.10;;
59649;SDS011;46162;57.568;25.814;2023-04-24T02:53:56;4.60;;;1.10;;
59649;SDS011;46162;57.568;25.814;2023-04-24T02:56:25;6.20;;;0.90;;
59649;SDS011;46162;57.568;25.814;2023-04-24T02:58:55;5.50;;;0.95;;
59649;SDS011;46162;57.568;25.814;2023-04-24T03:01:23;5.45;;;0.88;;
59649;SDS011;46162;57.568;25.814;2023-04-24T03:03:52;3.55;;;0.90;;
59649;SDS011;46162;57.568;25.814;2023-04-24T03:06:21;6.35;;;1.08;;
59649;SDS011;46162;57.568;25.814;2023-04-24T03:08:52;4.78;;;1.27;;
59649;SDS011;46162;57.568;25.814;2023-04-24T03:11:21;3.87;;;1.00;;
59649;SDS011;46162;57.568;25.814;2023-04-24T03:13:50;4.35;;;1.25;;
59649;SDS011;46162;57.568;25.814;2023-04-24T03:16:18;6.28;;;1.00;;
59649;SDS011;46162;57.568;25.814;2023-04-24T03:18:47;8.00;;;0.95;;
59649;SDS011;46162;57.568;25.814;2023-04-24T03:21:16;5.45;;;0.85;;
59649;SDS011;46162;57.568;25.814;2023-04-24T03:23:44;5.60;;;1.00;;
59649;SDS011;46162;57.568;25.814;2023-04-24T03:26:15;5.35;;;0.70;;
59649;SDS011;46162;57.568;25.814;2023-04-24T03:28:57;6.82;;;1.10;;
59649;SDS011;46162;57.568;25.814;2023-04-24T03:31:26;6.35;;;1.30;;
59649;SDS011;46162;57.568;25.814;2023-04-24T03:33:54;7.05;;;1.17;;
59649;SDS011;46162;57.568;25.814;2023-04-24T03:36:23;5.18;;;1.00;;
59649;SDS011;46162;57.568;25.814;2023-04-24T03:38:53;4.10;;;0.70;;
59649;SDS011;46162;57.568;25.814;2023-04-24T03:41:35;5.18;;;1.30;;
59649;SDS011;46162;57.568;25.814;2023-04-24T03:44:16;5.72;;;1.00;;
59649;SDS011;46162;57.568;25.814;2023-04-24T03:46:45;6.07;;;1.20;;
59649;SDS011;46162;57.568;25.814;2023-04-24T03:49:14;4.97;;;0.82;;
59649;SDS011;46162;57.568;25.814;2023-04-24T03:51:45;4.70;;;0.98;;
59649;SDS011;46162;57.568;25.814;2023-04-24T03:54:21;5.72;;;1.45;;
59649;SDS011;46162;57.568;25.814;2023-04-24T03:56:52;4.60;;;1.00;;
59649;SDS011;46162;57.568;25.814;2023-04-24T03:59:23;3.58;;;0.90;;
59649;SDS011;46162;57.568;25.814;2023-04-24T04:02:05;3.83;;;0.85;;
59649;SDS011;46162;57.568;25.814;2023-04-24T04:04:34;5.38;;;1.15;;
59649;SDS011;46162;57.568;25.814;2023-04-24T04:07:03;9.15;;;1.10;;
59649;SDS011;46162;57.568;25.814;2023-04-24T04:09:33;6.50;;;0.85;;
59649;SDS011;46162;57.568;25.814;2023-04-24T04:12:03;9.10;;;1.08;;
59649;SDS011;46162;57.568;25.814;2023-04-24T04:14:33;7.40;;;1.30;;
59649;SDS011;46162;57.568;25.814;2023-04-24T04:17:01;3.67;;;0.82;;
59649;SDS011;46162;57.568;25.814;2023-04-24T04:19:30;6.95;;;1.02;;
59649;SDS011;46162;57.568;25.814;2023-04-24T04:21:59;6.82;;;0.98;;
59649;SDS011;46162;57.568;25.814;2023-04-24T04:24:43;9.05;;;1.17;;
59649;SDS011;46162;57.568;25.814;2023-04-24T04:27:15;11.57;;;0.85;;
59649;SDS011;46162;57.568;25.814;2023-04-24T04:29:55;8.90;;;1.00;;
59649;SDS011;46162;57.568;25.814;2023-04-24T04:32:24;7.72;;;1.00;;
59649;SDS011;46162;57.568;25.814;2023-04-24T04:34:53;4.90;;;1.13;;
59649;SDS011;46162;57.568;25.814;2023-04-24T04:37:24;4.50;;;1.00;;
59649;SDS011;46162;57.568;25.814;2023-04-24T04:40:17;9.63;;;0.70;;
59649;SDS011;46162;57.568;25.814;2023-04-24T04:42:52;8.43;;;1.45;;
59649;SDS011;46162;57.568;25.814;2023-04-24T04:48:11;5.07;;;0.70;;
59649;SDS011;46162;57.568;25.814;2023-04-24T04:50:40;6.88;;;0.80;;
59649;SDS011;46162;57.568;25.814;2023-04-24T04:53:09;3.55;;;0.90;;
59649;SDS011;46162;57.568;25.814;2023-04-24T04:55:38;7.63;;;0.82;;
59649;SDS011;46162;57.568;25.814;2023-04-24T04:58:11;7.97;;;1.23;;
59649;SDS011;46162;57.568;25.814;2023-04-24T05:00:40;6.03;;;0.80;;
59649;SDS011;46162;57.568;25.814;2023-04-24T05:03:24;6.55;;;0.90;;
59649;SDS011;46162;57.568;25.814;2023-04-24T05:06:01;6.75;;;1.00;;
59649;SDS011;46162;57.568;25.814;2023-04-24T05:08:33;4.72;;;1.48;;
59649;SDS011;46162;57.568;25.814;2023-04-24T05:11:03;4.07;;;1.03;;
59649;SDS011;46162;57.568;25.814;2023-04-24T05:13:34;10.05;;;1.10;;
59649;SDS011;46162;57.568;25.814;2023-04-24T05:16:26;6.10;;;1.40;;
59649;SDS011;46162;57.568;25.814;2023-04-24T05:18:55;9.85;;;1.17;;
59649;SDS011;46162;57.568;25.814;2023-04-24T05:21:29;5.35;;;0.90;;
59649;SDS011;46162;57.568;25.814;2023-04-24T05:23:59;9.30;;;0.95;;
59649;SDS011;46162;57.568;25.814;2023-04-24T05:26:50;4.68;;;0.88;;
59649;SDS011;46162;57.568;25.814;2023-04-24T05:29:25;7.32;;;1.05;;
59649;SDS011;46162;57.568;25.814;2023-04-24T05:31:54;12.45;;;1.58;;
59649;SDS011;46162;57.568;25.814;2023-04-24T05:34:23;5.25;;;0.80;;
59649;SDS011;46162;57.568;25.814;2023-04-24T05:36:55;7.32;;;1.30;;
59649;SDS011;46162;57.568;25.814;2023-04-24T05:39:24;8.18;;;1.27;;
59649;SDS011;46162;57.568;25.814;2023-04-24T05:41:54;13.43;;;1.35;;
59649;SDS011;46162;57.568;25.814;2023-04-24T05:46:54;10.02;;;1.90;;
59649;SDS011;46162;57.568;25.814;2023-04-24T05:49:23;5.63;;;0.77;;
59649;SDS011;46162;57.568;25.814;2023-04-24T05:51:53;8.90;;;1.02;;
59649;SDS011;46162;57.568;25.814;2023-04-24T05:54:21;8.07;;;1.23;;
59649;SDS011;46162;57.568;25.814;2023-04-24T05:56:51;3.83;;;1.42;;
59649;SDS011;46162;57.568;25.814;2023-04-24T05:59:33;7.22;;;1.52;;
59649;SDS011;46162;57.568;25.814;2023-04-24T06:02:02;10.73;;;1.27;;
59649;SDS011;46162;57.568;25.814;2023-04-24T06:04:31;9.65;;;1.50;;
59649;SDS011;46162;57.568;25.814;2023-04-24T06:07:03;6.80;;;1.15;;
59649;SDS011;46162;57.568;25.814;2023-04-24T06:09:34;7.78;;;1.55;;
59649;SDS011;46162;57.568;25.814;2023-04-24T06:12:02;6.13;;;1.65;;
59649;SDS011;46162;57.568;25.814;2023-04-24T06:14:47;6.32;;;1.20;;
59649;SDS011;46162;57.568;25.814;2023-04-24T06:17:23;8.18;;;1.48;;
59649;SDS011;46162;57.568;25.814;2023-04-24T06:19:52;5.30;;;1.40;;
59649;SDS011;46162;57.568;25.814;2023-04-24T06:22:23;9.95;;;1.30;;
59649;SDS011;46162;57.568;25.814;2023-04-24T06:24:52;6.65;;;1.23;;
59649;SDS011;46162;57.568;25.814;2023-04-24T06:27:20;8.52;;;1.75;;
59649;SDS011;46162;57.568;25.814;2023-04-24T06:29:50;5.25;;;1.77;;
59649;SDS011;46162;57.568;25.814;2023-04-24T06:32:21;8.98;;;1.75;;
59649;SDS011;46162;57.568;25.814;2023-04-24T06:34:51;9.47;;;1.50;;
59649;SDS011;46162;57.568;25.814;2023-04-24T06:37:20;8.25;;;1.75;;
59649;SDS011;46162;57.568;25.814;2023-04-24T06:39:49;4.68;;;1.63;;
59649;SDS011;46162;57.568;25.814;2023-04-24T06:42:18;15.98;;;1.85;;
59649;SDS011;46162;57.568;25.814;2023-04-24T06:44:50;5.65;;;2.13;;
59649;SDS011;46162;57.568;25.814;2023-04-24T06:47:19;10.30;;;1.50;;
59649;SDS011;46162;57.568;25.814;2023-04-24T06:49:48;9.40;;;1.60;;
59649;SDS011;46162;57.568;25.814;2023-04-24T06:52:17;9.88;;;1.50;;
59649;SDS011;46162;57.568;25.814;2023-04-24T06:54:46;7.13;;;1.80;;
59649;SDS011;46162;57.568;25.814;2023-04-24T06:57:15;6.07;;;1.73;;
59649;SDS011;46162;57.568;25.814;2023-04-24T06:59:44;9.18;;;1.55;;
59649;SDS011;46162;57.568;25.814;2023-04-24T07:02:14;10.35;;;1.80;;
59649;SDS011;46162;57.568;25.814;2023-04-24T07:04:42;12.52;;;1.85;;
59649;SDS011;46162;57.568;25.814;2023-04-24T07:07:12;4.85;;;1.23;;
59649;SDS011;46162;57.568;25.814;2023-04-24T07:09:42;9.67;;;2.60;;
59649;SDS011;46162;57.568;25.814;2023-04-24T07:12:12;4.82;;;1.38;;
59649;SDS011;46162;57.568;25.814;2023-04-24T07:14:40;6.32;;;1.50;;
59649;SDS011;46162;57.568;25.814;2023-04-24T07:17:09;13.82;;;2.30;;
59649;SDS011;46162;57.568;25.814;2023-04-24T07:19:41;7.82;;;2.00;;
59649;SDS011;46162;57.568;25.814;2023-04-24T07:22:10;10.95;;;1.73;;
59649;SDS011;46162;57.568;25.814;2023-04-24T07:24:43;12.38;;;1.90;;
59649;SDS011;46162;57.568;25.814;2023-04-24T07:27:12;10.90;;;1.80;;
59649;SDS011;46162;57.568;25.814;2023-04-24T07:29:42;7.00;;;1.65;;
59649;SDS011;46162;57.568;25.814;2023-04-24T07:32:11;9.38;;;1.60;;
59649;SDS011;46162;57.568;25.814;2023-04-24T07:34:41;6.05;;;1.83;;
59649;SDS011;46162;57.568;25.814;2023-04-24T07:37:10;9.90;;;1.65;;
59649;SDS011;46162;57.568;25.814;2023-04-24T07:39:38;6.47;;;1.70;;
59649;SDS011;46162;57.568;25.814;2023-04-24T07:42:08;9.23;;;1.90;;
59649;SDS011;46162;57.568;25.814;2023-04-24T07:44:36;12.60;;;1.83;;
59649;SDS011;46162;57.568;25.814;2023-04-24T07:47:05;5.70;;;1.42;;
59649;SDS011;46162;57.568;25.814;2023-04-24T07:49:34;7.45;;;1.40;;
59649;SDS011;46162;57.568;25.814;2023-04-24T07:52:04;6.43;;;1.77;;
59649;SDS011;46162;57.568;25.814;2023-04-24T07:54:33;12.80;;;1.70;;
59649;SDS011;46162;57.568;25.814;2023-04-24T07:57:01;7.60;;;2.03;;
59649;SDS011;46162;57.568;25.814;2023-04-24T07:59:30;8.05;;;1.40;;
59649;SDS011;46162;57.568;25.814;2023-04-24T08:01:58;16.40;;;2.00;;
59649;SDS011;46162;57.568;25.814;2023-04-24T08:04:28;5.15;;;1.60;;
59649;SDS011;46162;57.568;25.814;2023-04-24T08:06:57;11.30;;;2.00;;
59649;SDS011;46162;57.568;25.814;2023-04-24T08:09:27;7.07;;;1.73;;
59649;SDS011;46162;57.568;25.814;2023-04-24T08:11:56;7.93;;;2.15;;
59649;SDS011;46162;57.568;25.814;2023-04-24T08:14:24;7.18;;;1.70;;
59649;SDS011;46162;57.568;25.814;2023-04-24T08:16:53;4.68;;;1.48;;
59649;SDS011;46162;57.568;25.814;2023-04-24T08:19:23;8.20;;;1.40;;
59649;SDS011;46162;57.568;25.814;2023-04-24T08:21:52;12.23;;;2.00;;
59649;SDS011;46162;57.568;25.814;2023-04-24T08:24:22;15.27;;;2.17;;
59649;SDS011;46162;57.568;25.814;2023-04-24T08:26:52;4.70;;;1.63;;
59649;SDS011;46162;57.568;25.814;2023-04-24T08:29:23;7.93;;;1.67;;
59649;SDS011;46162;57.568;25.814;2023-04-24T08:31:53;12.07;;;1.87;;
59649;SDS011;46162;57.568;25.814;2023-04-24T08:34:22;9.80;;;2.00;;
59649;SDS011;46162;57.568;25.814;2023-04-24T08:36:51;6.47;;;1.85;;
59649;SDS011;46162;57.568;25.814;2023-04-24T08:39:19;12.02;;;1.63;;
59649;SDS011;46162;57.568;25.814;2023-04-24T08:41:48;6.93;;;1.60;;
59649;SDS011;46162;57.568;25.814;2023-04-24T08:44:20;21.10;;;2.13;;
59649;SDS011;46162;57.568;25.814;2023-04-24T08:46:49;8.32;;;1.60;;
59649;SDS011;46162;57.568;25.814;2023-04-24T08:49:18;9.65;;;1.65;;
59649;SDS011;46162;57.568;25.814;2023-04-24T08:51:47;9.32;;;1.60;;
59649;SDS011;46162;57.568;25.814;2023-04-24T08:54:17;10.63;;;2.13;;
59649;SDS011;46162;57.568;25.814;2023-04-24T08:56:47;7.15;;;1.50;;
59649;SDS011;46162;57.568;25.814;2023-04-24T08:59:17;12.07;;;2.17;;
59649;SDS011;46162;57.568;25.814;2023-04-24T09:01:47;57.42;;;3.33;;
59649;SDS011;46162;57.568;25.814;2023-04-24T09:04:19;20.75;;;2.50;;
59649;SDS011;46162;57.568;25.814;2023-04-24T09:06:52;7.32;;;1.88;;
59649;SDS011;46162;57.568;25.814;2023-04-24T09:09:24;10.00;;;1.90;;
59649;SDS011;46162;57.568;25.814;2023-04-24T09:11:53;10.43;;;1.95;;
59649;SDS011;46162;57.568;25.814;2023-04-24T09:14:22;7.78;;;2.25;;
59649;SDS011;46162;57.568;25.814;2023-04-24T09:16:52;14.80;;;1.88;;
59649;SDS011;46162;57.568;25.814;2023-04-24T09:19:21;9.40;;;1.80;;
59649;SDS011;46162;57.568;25.814;2023-04-24T09:21:50;4.75;;;2.00;;
59649;SDS011;46162;57.568;25.814;2023-04-24T09:24:21;9.70;;;1.98;;
59649;SDS011;46162;57.568;25.814;2023-04-24T09:26:55;7.40;;;1.95;;
59649;SDS011;46162;57.568;25.814;2023-04-24T09:29:25;14.73;;;2.20;;
59649;SDS011;46162;57.568;25.814;2023-04-24T09:31:55;16.48;;;1.80;;
59649;SDS011;46162;57.568;25.814;2023-04-24T09:34:25;5.07;;;1.67;;
59649;SDS011;46162;57.568;25.814;2023-04-24T09:36:55;9.10;;;2.00;;
59649;SDS011;46162;57.568;25.814;2023-04-24T09:39:23;9.45;;;2.22;;
59649;SDS011;46162;57.568;25.814;2023-04-24T09:41:52;7.60;;;1.63;;
59649;SDS011;46162;57.568;25.814;2023-04-24T09:44:22;8.43;;;1.55;;
59649;SDS011;46162;57.568;25.814;2023-04-24T09:46:52;7.28;;;2.30;;
59649;SDS011;46162;57.568;25.814;2023-04-24T09:49:24;8.90;;;2.17;;
59649;SDS011;46162;57.568;25.814;2023-04-24T09:52:02;10.60;;;2.00;;
59649;SDS011;46162;57.568;25.814;2023-04-24T09:54:31;9.82;;;2.20;;
59649;SDS011;46162;57.568;25.814;2023-04-24T09:57:00;10.63;;;2.50;;
59649;SDS011;46162;57.568;25.814;2023-04-24T09:59:29;8.00;;;2.15;;
59649;SDS011;46162;57.568;25.814;2023-04-24T10:01:59;7.35;;;2.15;;
59649;SDS011;46162;57.568;25.814;2023-04-24T10:04:30;7.57;;;1.95;;
59649;SDS011;46162;57.568;25.814;2023-04-24T10:06:59;10.80;;;2.22;;
59649;SDS011;46162;57.568;25.814;2023-04-24T10:09:33;7.32;;;1.98;;
59649;SDS011;46162;57.568;25.814;2023-04-24T10:12:02;8.55;;;2.47;;
59649;SDS011;46162;57.568;25.814;2023-04-24T10:14:30;8.68;;;2.20;;
59649;SDS011;46162;57.568;25.814;2023-04-24T10:16:59;8.30;;;2.10;;
59649;SDS011;46162;57.568;25.814;2023-04-24T10:19:28;6.65;;;2.15;;
59649;SDS011;46162;57.568;25.814;2023-04-24T10:22:00;17.23;;;2.20;;
59649;SDS011;46162;57.568;25.814;2023-04-24T10:24:31;9.70;;;2.40;;
59649;SDS011;46162;57.568;25.814;2023-04-24T10:27:02;9.48;;;1.80;;
59649;SDS011;46162;57.568;25.814;2023-04-24T10:29:32;9.27;;;2.13;;
59649;SDS011;46162;57.568;25.814;2023-04-24T10:32:04;12.95;;;2.00;;
59649;SDS011;46162;57.568;25.814;2023-04-24T10:34:37;27.88;;;2.67;;
59649;SDS011;46162;57.568;25.814;2023-04-24T10:37:06;7.65;;;2.20;;
59649;SDS011;46162;57.568;25.814;2023-04-24T10:39:35;12.82;;;1.90;;
59649;SDS011;46162;57.568;25.814;2023-04-24T10:42:13;11.90;;;2.30;;
59649;SDS011;46162;57.568;25.814;2023-04-24T10:44:43;18.58;;;2.50;;
59649;SDS011;46162;57.568;25.814;2023-04-24T10:47:15;6.18;;;1.90;;
59649;SDS011;46162;57.568;25.814;2023-04-24T10:49:45;26.08;;;2.70;;
59649;SDS011;46162;57.568;25.814;2023-04-24T10:52:14;7.78;;;1.80;;
59649;SDS011;46162;57.568;25.814;2023-04-24T10:54:44;9.70;;;1.90;;
59649;SDS011;46162;57.568;25.814;2023-04-24T10:57:26;13.25;;;2.50;;
59649;SDS011;46162;57.568;25.814;2023-04-24T11:00:10;9.65;;;2.28;;
59649;SDS011;46162;57.568;25.814;2023-04-24T11:02:42;10.40;;;2.00;;
59649;SDS011;46162;57.568;25.814;2023-04-24T11:05:18;7.35;;;1.90;;
59649;SDS011;46162;57.568;25.814;2023-04-24T11:10:39;7.72;;;1.85;;
59649;SDS011;46162;57.568;25.814;2023-04-24T11:13:14;12.25;;;2.28;;
59649;SDS011;46162;57.568;25.814;2023-04-24T11:15:43;8.38;;;2.35;;
59649;SDS011;46162;57.568;25.814;2023-04-24T11:18:15;8.60;;;1.98;;
59649;SDS011;46162;57.568;25.814;2023-04-24T11:20:45;10.23;;;2.22;;
59649;SDS011;46162;57.568;25.814;2023-04-24T11:23:14;9.65;;;2.05;;
59649;SDS011;46162;57.568;25.814;2023-04-24T11:25:44;9.63;;;1.95;;
59649;SDS011;46162;57.568;25.814;2023-04-24T11:28:14;11.70;;;2.15;;
59649;SDS011;46162;57.568;25.814;2023-04-24T11:30:44;10.65;;;2.15;;
59649;SDS011;46162;57.568;25.814;2023-04-24T11:33:12;48.55;;;3.10;;
59649;SDS011;46162;57.568;25.814;2023-04-24T11:35:49;5.88;;;2.25;;
59649;SDS011;46162;57.568;25.814;2023-04-24T11:38:19;9.20;;;1.83;;
59649;SDS011;46162;57.568;25.814;2023-04-24T11:40:51;6.07;;;1.98;;
59649;SDS011;46162;57.568;25.814;2023-04-24T11:43:20;16.37;;;2.33;;
59649;SDS011;46162;57.568;25.814;2023-04-24T11:45:49;10.90;;;2.20;;
59649;SDS011;46162;57.568;25.814;2023-04-24T11:48:19;9.25;;;2.17;;
59649;SDS011;46162;57.568;25.814;2023-04-24T11:50:50;9.60;;;2.00;;
59649;SDS011;46162;57.568;25.814;2023-04-24T11:53:19;7.80;;;2.65;;
59649;SDS011;46162;57.568;25.814;2023-04-24T11:55:48;10.48;;;2.45;;
59649;SDS011;46162;57.568;25.814;2023-04-24T11:58:20;9.38;;;2.83;;
59649;SDS011;46162;57.568;25.814;2023-04-24T12:00:55;9.15;;;2.35;;
59649;SDS011;46162;57.568;25.814;2023-04-24T12:03:25;8.45;;;2.20;;
59649;SDS011;46162;57.568;25.814;2023-04-24T12:06:05;8.73;;;2.13;;
59649;SDS011;46162;57.568;25.814;2023-04-24T12:11:05;5.28;;;2.42;;
59649;SDS011;46162;57.568;25.814;2023-04-24T12:13:34;19.38;;;2.80;;
59649;SDS011;46162;57.568;25.814;2023-04-24T12:16:04;6.32;;;1.88;;
59649;SDS011;46162;57.568;25.814;2023-04-24T12:18:32;8.32;;;2.17;;
59649;SDS011;46162;57.568;25.814;2023-04-24T12:21:18;7.35;;;1.90;;
59649;SDS011;46162;57.568;25.814;2023-04-24T12:23:48;6.60;;;2.10;;
59649;SDS011;46162;57.568;25.814;2023-04-24T12:26:18;22.75;;;3.47;;
59649;SDS011;46162;57.568;25.814;2023-04-24T12:28:49;11.02;;;2.33;;
59649;SDS011;46162;57.568;25.814;2023-04-24T12:31:17;13.68;;;2.45;;
59649;SDS011;46162;57.568;25.814;2023-04-24T12:33:49;19.90;;;2.60;;
59649;SDS011;46162;57.568;25.814;2023-04-24T12:36:20;10.80;;;2.08;;
59649;SDS011;46162;57.568;25.814;2023-04-24T12:38:52;5.10;;;1.90;;
59649;SDS011;46162;57.568;25.814;2023-04-24T12:41:21;24.33;;;3.03;;
59649;SDS011;46162;57.568;25.814;2023-04-24T12:43:52;8.15;;;2.10;;
59649;SDS011;46162;57.568;25.814;2023-04-24T12:46:22;8.82;;;1.70;;
59649;SDS011;46162;57.568;25.814;2023-04-24T12:48:50;9.45;;;1.85;;
59649;SDS011;46162;57.568;25.814;2023-04-24T12:51:21;9.90;;;2.08;;
59649;SDS011;46162;57.568;25.814;2023-04-24T12:53:51;6.30;;;2.22;;
59649;SDS011;46162;57.568;25.814;2023-04-24T12:58:50;10.30;;;2.20;;
59649;SDS011;46162;57.568;25.814;2023-04-24T13:01:19;7.80;;;2.20;;
59649;SDS011;46162;57.568;25.814;2023-04-24T13:03:48;8.25;;;2.53;;
59649;SDS011;46162;57.568;25.814;2023-04-24T13:06:17;12.00;;;2.25;;
59649;SDS011;46162;57.568;25.814;2023-04-24T13:08:47;11.70;;;2.75;;
59649;SDS011;46162;57.568;25.814;2023-04-24T13:11:16;16.17;;;2.97;;
59649;SDS011;46162;57.568;25.814;2023-04-24T13:13:45;14.50;;;2.80;;
59649;SDS011;46162;57.568;25.814;2023-04-24T13:16:13;7.63;;;2.03;;
59649;SDS011;46162;57.568;25.814;2023-04-24T13:18:42;10.55;;;2.58;;
59649;SDS011;46162;57.568;25.814;2023-04-24T13:21:11;25.33;;;2.70;;
59649;SDS011;46162;57.568;25.814;2023-04-24T13:23:39;16.35;;;2.95;;
59649;SDS011;46162;57.568;25.814;2023-04-24T13:26:11;21.25;;;2.92;;
59649;SDS011;46162;57.568;25.814;2023-04-24T13:28:39;14.90;;;2.47;;
59649;SDS011;46162;57.568;25.814;2023-04-24T13:31:08;17.48;;;2.67;;
59649;SDS011;46162;57.568;25.814;2023-04-24T13:33:37;13.25;;;2.00;;
59649;SDS011;46162;57.568;25.814;2023-04-24T13:36:07;11.93;;;2.63;;
59649;SDS011;46162;57.568;25.814;2023-04-24T13:38:36;15.63;;;2.90;;
59649;SDS011;46162;57.568;25.814;2023-04-24T13:41:05;16.33;;;2.78;;
59649;SDS011;46162;57.568;25.814;2023-04-24T13:43:35;12.30;;;2.88;;
59649;SDS011;46162;57.568;25.814;2023-04-24T13:46:04;11.85;;;2.97;;
59649;SDS011;46162;57.568;25.814;2023-04-24T13:48:32;14.10;;;3.28;;
59649;SDS011;46162;57.568;25.814;2023-04-24T13:51:01;10.23;;;2.85;;
59649;SDS011;46162;57.568;25.814;2023-04-24T13:53:30;20.70;;;3.45;;
59649;SDS011;46162;57.568;25.814;2023-04-24T13:55:59;18.02;;;2.80;;
59649;SDS011;46162;57.568;25.814;2023-04-24T13:58:28;17.52;;;2.13;;
59649;SDS011;46162;57.568;25.814;2023-04-24T14:00:58;20.77;;;2.72;;
59649;SDS011;46162;57.568;25.814;2023-04-24T14:03:26;10.50;;;2.58;;
59649;SDS011;46162;57.568;25.814;2023-04-24T14:05:55;6.80;;;2.30;;
59649;SDS011;46162;57.568;25.814;2023-04-24T14:08:24;12.55;;;2.30;;
59649;SDS011;46162;57.568;25.814;2023-04-24T14:10:53;9.02;;;2.60;;
59649;SDS011;46162;57.568;25.814;2023-04-24T14:13:22;7.63;;;2.60;;
59649;SDS011;46162;57.568;25.814;2023-04-24T14:15:50;15.55;;;2.95;;
59649;SDS011;46162;57.568;25.814;2023-04-24T14:18:21;14.27;;;2.60;;
59649;SDS011;46162;57.568;25.814;2023-04-24T14:20:50;12.63;;;3.10;;
59649;SDS011;46162;57.568;25.814;2023-04-24T14:23:19;14.50;;;3.42;;
59649;SDS011;46162;57.568;25.814;2023-04-24T14:25:47;11.15;;;2.60;;
59649;SDS011;46162;57.568;25.814;2023-04-24T14:28:19;9.98;;;2.35;;
59649;SDS011;46162;57.568;25.814;2023-04-24T14:30:48;16.98;;;3.13;;
59649;SDS011;46162;57.568;25.814;2023-04-24T14:33:16;9.32;;;2.10;;
59649;SDS011;46162;57.568;25.814;2023-04-24T14:35:46;59.42;;;4.38;;
59649;SDS011;46162;57.568;25.814;2023-04-24T14:40:44;244.35;;;11.18;;
59649;SDS011;46162;57.568;25.814;2023-04-24T14:43:16;135.02;;;8.15;;
59649;SDS011;46162;57.568;25.814;2023-04-24T14:45:44;62.08;;;6.85;;
59649;SDS011;46162;57.568;25.814;2023-04-24T14:48:13;40.13;;;4.45;;
59649;SDS011;46162;57.568;25.814;2023-04-24T14:50:43;33.67;;;3.72;;
59649;SDS011;46162;57.568;25.814;2023-04-24T14:53:13;32.92;;;3.92;;
59649;SDS011;46162;57.568;25.814;2023-04-24T14:55:43;16.60;;;3.53;;
59649;SDS011;46162;57.568;25.814;2023-04-24T14:58:11;22.52;;;4.35;;
59649;SDS011;46162;57.568;25.814;2023-04-24T15:00:40;15.23;;;3.83;;
59649;SDS011;46162;57.568;25.814;2023-04-24T15:03:09;18.50;;;3.65;;
59649;SDS011;46162;57.568;25.814;2023-04-24T15:05:38;23.83;;;4.07;;
59649;SDS011;46162;57.568;25.814;2023-04-24T15:08:07;17.08;;;4.10;;